createdAt,value
2023-01-26T00:02:00.274Z,32.37
2023-01-26T00:04:23.938Z,40.80
2023-01-26T00:06:47.518Z,37.23
2023-01-26T00:09:15.443Z,35.00
2023-01-26T00:11:39.620Z,36.40
2023-01-26T00:14:03.799Z,36.13
2023-01-26T00:16:28.562Z,42.30
2023-01-26T00:18:54.006Z,37.50
2023-01-26T00:21:19.246Z,42.33
2023-01-26T00:23:43.415Z,31.27
2023-01-26T00:26:08.756Z,40.47
2023-01-26T00:28:34.465Z,38.87
2023-01-26T00:31:04.831Z,42.67
2023-01-26T00:33:28.418Z,39.63
2023-01-26T00:35:57.307Z,34.10
2023-01-26T00:38:20.885Z,40.03
2023-01-26T00:40:44.378Z,39.87
2023-01-26T00:43:08.242Z,42.07
2023-01-26T00:45:31.769Z,43.33
2023-01-26T00:47:55.392Z,46.67
2023-01-26T00:50:19.584Z,40.60
2023-01-26T00:52:44.659Z,43.40
2023-01-26T00:55:09.370Z,42.10
2023-01-26T00:57:32.948Z,42.53
2023-01-26T00:59:56.478Z,39.33
2023-01-26T01:02:21.729Z,43.47
2023-01-26T01:04:46.045Z,39.47
2023-01-26T01:07:09.656Z,46.93
2023-01-26T01:09:35.142Z,48.60
2023-01-26T01:11:58.775Z,42.27
2023-01-26T01:14:22.315Z,49.20
2023-01-26T01:16:46.639Z,47.27
2023-01-26T01:19:12.759Z,49.83
2023-01-26T01:21:36.545Z,43.50
2023-01-26T01:24:00.294Z,43.67
2023-01-26T01:26:25.409Z,48.60
2023-01-26T01:28:48.946Z,45.63
2023-01-26T01:31:15.616Z,47.23
2023-01-26T01:33:39.625Z,42.57
2023-01-26T01:36:06.054Z,45.07
2023-01-26T01:38:30.112Z,57.10
2023-01-26T01:40:54.341Z,43.20
2023-01-26T01:43:19.820Z,56.03
2023-01-26T01:45:45.801Z,44.20
2023-01-26T01:48:21.282Z,45.37
2023-01-26T01:50:45.779Z,42.00
2023-01-26T01:53:14.540Z,40.13
2023-01-26T01:55:38.281Z,42.07
2023-01-26T01:58:04.825Z,48.43
2023-01-26T02:00:31.246Z,37.97
2023-01-26T02:03:12.000Z,38.60
2023-01-26T02:05:43.717Z,38.80
2023-01-26T02:08:09.747Z,36.30
2023-01-26T02:10:34.344Z,43.57
2023-01-26T02:13:00.720Z,38.77
2023-01-26T02:15:24.466Z,40.23
2023-01-26T02:17:49.547Z,39.20
2023-01-26T02:20:20.881Z,43.97
2023-01-26T02:22:52.984Z,39.23
2023-01-26T02:25:28.959Z,36.33
2023-01-26T02:27:54.962Z,35.80
2023-01-26T02:30:20.047Z,37.47
2023-01-26T02:32:43.733Z,34.73
2023-01-26T02:35:07.889Z,33.93
2023-01-26T02:37:31.532Z,39.13
2023-01-26T02:40:01.184Z,37.37
2023-01-26T02:42:39.156Z,37.93
2023-01-26T02:45:04.502Z,40.00
2023-01-26T02:47:28.042Z,40.17
2023-01-26T02:49:51.075Z,39.90
2023-01-26T02:52:17.616Z,46.03
2023-01-26T02:55:00.964Z,43.90
2023-01-26T02:57:24.645Z,49.57
2023-01-26T02:59:48.487Z,48.87
2023-01-26T03:02:13.803Z,44.83
2023-01-26T03:04:37.630Z,46.77
2023-01-26T03:07:01.288Z,40.27
2023-01-26T03:09:25.285Z,37.53
2023-01-26T03:11:48.881Z,41.20
2023-01-26T03:14:16.149Z,55.63
2023-01-26T03:16:40.294Z,43.50
2023-01-26T03:19:25.302Z,37.67
2023-01-26T03:22:06.486Z,42.87
2023-01-26T03:24:47.360Z,33.80
2023-01-26T03:27:29.496Z,43.93
2023-01-26T03:29:59.646Z,32.27
2023-01-26T03:32:23.328Z,37.87
2023-01-26T03:34:49.437Z,35.97
2023-01-26T03:37:13.275Z,36.50
2023-01-26T03:40:03.211Z,40.87
2023-01-26T03:42:44.293Z,32.20
2023-01-26T03:45:27.113Z,30.13
2023-01-26T03:48:08.489Z,32.43
2023-01-26T03:50:50.825Z,31.90
2023-01-26T03:53:33.933Z,33.83
2023-01-26T03:56:15.093Z,32.07
2023-01-26T03:58:38.672Z,30.03
2023-01-26T04:01:02.323Z,32.13
2023-01-26T04:03:43.445Z,31.60
2023-01-26T04:06:26.249Z,26.97
2023-01-26T04:08:50.048Z,29.40
2023-01-26T04:11:13.865Z,30.57
2023-01-26T04:13:55.157Z,24.47
2023-01-26T04:16:42.863Z,27.87
2023-01-26T04:19:23.946Z,26.63
2023-01-26T04:21:48.931Z,27.00
2023-01-26T04:24:17.137Z,25.10
2023-01-26T04:26:43.440Z,23.70
2023-01-26T04:29:14.667Z,27.43
2023-01-26T04:31:40.499Z,24.10
2023-01-26T04:34:06.101Z,28.10
2023-01-26T04:38:55.131Z,25.20
2023-01-26T04:41:19.557Z,25.07
2023-01-26T04:43:48.230Z,26.93
2023-01-26T04:46:14.548Z,23.10
2023-01-26T04:48:38.795Z,26.37
2023-01-26T04:51:06.143Z,27.03
2023-01-26T04:53:29.847Z,25.57
2023-01-26T04:55:55.634Z,25.53
2023-01-26T04:58:19.385Z,26.57
2023-01-26T05:00:43.278Z,27.60
2023-01-26T05:03:08.446Z,27.07
2023-01-26T05:05:38.084Z,29.00
2023-01-26T05:08:01.765Z,27.40
2023-01-26T05:10:27.569Z,30.90
2023-01-26T05:13:14.189Z,28.60
2023-01-26T05:15:57.759Z,30.57
2023-01-26T05:18:35.335Z,32.50
2023-01-26T05:21:14.169Z,29.33
2023-01-26T05:23:42.718Z,29.50
2023-01-26T05:26:06.800Z,34.17
2023-01-26T05:28:42.228Z,34.50
2023-01-26T05:31:06.494Z,31.63
2023-01-26T05:33:30.372Z,32.70
2023-01-26T05:35:55.430Z,32.63
2023-01-26T05:38:19.733Z,33.20
2023-01-26T05:40:44.440Z,29.97
2023-01-26T05:43:08.374Z,30.33
2023-01-26T05:46:03.615Z,39.37
2023-01-26T05:48:27.454Z,41.40
2023-01-26T05:50:51.086Z,37.47
2023-01-26T05:53:16.905Z,37.07
2023-01-26T05:55:40.721Z,39.07
2023-01-26T05:58:04.408Z,37.93
2023-01-26T06:00:28.289Z,35.77
2023-01-26T06:03:00.910Z,31.47
2023-01-26T06:05:25.135Z,36.63
2023-01-26T06:07:49.258Z,35.47
2023-01-26T06:10:21.522Z,37.80
2023-01-26T06:13:08.165Z,37.17
2023-01-26T06:15:37.983Z,30.97
2023-01-26T06:18:03.972Z,30.67
2023-01-26T06:20:27.806Z,28.10
2023-01-26T06:22:54.955Z,26.90
2023-01-26T06:25:18.684Z,26.97
2023-01-26T06:27:42.660Z,24.70
2023-01-26T06:30:17.571Z,31.73
2023-01-26T06:32:41.239Z,35.07
2023-01-26T06:35:08.486Z,26.27
2023-01-26T06:37:32.221Z,29.03
2023-01-26T06:39:55.742Z,22.87
2023-01-26T06:42:19.395Z,31.27
2023-01-26T06:44:42.961Z,25.87
2023-01-26T06:47:08.780Z,26.90
2023-01-26T06:49:33.195Z,25.67
2023-01-26T06:52:06.791Z,23.97
2023-01-26T06:54:44.714Z,20.57
2023-01-26T06:57:19.528Z,24.97
2023-01-26T07:00:00.339Z,30.10
2023-01-26T07:02:32.289Z,22.20
2023-01-26T07:04:55.965Z,23.83
2023-01-26T07:07:20.865Z,28.10
2023-01-26T07:09:44.474Z,25.40
2023-01-26T07:12:08.812Z,27.93
2023-01-26T07:14:33.480Z,25.87
2023-01-26T07:16:57.167Z,27.40
2023-01-26T07:19:20.933Z,24.70
2023-01-26T07:21:44.451Z,23.53
2023-01-26T07:24:10.690Z,26.90
2023-01-26T07:26:34.178Z,20.30
2023-01-26T07:28:57.852Z,19.87
2023-01-26T07:31:21.459Z,20.73
2023-01-26T07:33:45.094Z,23.10
2023-01-26T07:36:11.087Z,21.40
2023-01-26T07:38:35.479Z,19.70
2023-01-26T07:41:00.375Z,15.47
2023-01-26T07:43:23.962Z,18.23
2023-01-26T07:45:52.447Z,16.87
2023-01-26T07:48:16.807Z,14.43
2023-01-26T07:50:40.403Z,16.20
2023-01-26T07:53:04.018Z,14.27
2023-01-26T07:55:27.584Z,12.80
2023-01-26T07:57:52.678Z,13.33
2023-01-26T08:00:17.960Z,16.90
2023-01-26T08:02:41.688Z,16.00
2023-01-26T08:05:06.550Z,17.77
2023-01-26T08:07:30.101Z,17.77
2023-01-26T08:09:53.619Z,20.17
2023-01-26T08:12:17.157Z,18.20
2023-01-26T08:14:47.136Z,21.17
2023-01-26T08:17:10.924Z,17.10
2023-01-26T08:19:34.423Z,21.87
2023-01-26T08:21:58.118Z,20.17
2023-01-26T08:24:21.799Z,20.90
2023-01-26T08:26:45.386Z,17.03
2023-01-26T08:29:09.149Z,20.47
2023-01-26T08:31:34.548Z,19.90
2023-01-26T08:33:58.144Z,22.27
2023-01-26T08:36:23.014Z,21.83
2023-01-26T08:38:46.999Z,23.87
2023-01-26T08:41:11.268Z,22.50
2023-01-26T08:43:35.014Z,23.03
2023-01-26T08:45:59.206Z,21.97
2023-01-26T08:48:24.180Z,24.43
2023-01-26T08:50:47.879Z,23.63
2023-01-26T08:53:11.469Z,21.23
2023-01-26T08:55:36.312Z,20.13
2023-01-26T08:58:00.855Z,18.33
2023-01-26T09:00:26.203Z,22.60
2023-01-26T09:02:50.546Z,22.87
2023-01-26T09:05:15.856Z,20.90
2023-01-26T09:07:39.360Z,21.77
2023-01-26T09:10:02.919Z,22.87
2023-01-26T09:12:26.460Z,21.03
2023-01-26T09:14:50.076Z,24.97
2023-01-26T09:17:13.562Z,23.40
2023-01-26T09:19:37.322Z,21.90
2023-01-26T09:22:02.243Z,22.43
2023-01-26T09:24:26.277Z,24.97
2023-01-26T09:26:49.885Z,23.43
2023-01-26T09:29:13.446Z,24.93
2023-01-26T09:31:37.032Z,23.13
2023-01-26T09:34:00.692Z,23.27
2023-01-26T09:36:24.182Z,25.00
2023-01-26T09:38:49.723Z,22.80
2023-01-26T09:41:33.633Z,21.93
2023-01-26T09:44:01.763Z,23.43
2023-01-26T09:46:30.596Z,19.63
2023-01-26T09:49:07.048Z,22.20
2023-01-26T09:51:36.795Z,21.80
2023-01-26T09:54:07.803Z,20.60
2023-01-26T09:56:34.033Z,20.40
2023-01-26T09:59:03.240Z,25.60
2023-01-26T10:01:37.997Z,20.07
2023-01-26T10:04:07.367Z,27.67
2023-01-26T10:06:32.400Z,22.27
2023-01-26T10:09:19.881Z,22.90
2023-01-26T10:11:49.450Z,21.47
2023-01-26T10:14:19.554Z,24.97
2023-01-26T10:16:47.090Z,18.37
2023-01-26T10:19:20.556Z,21.07
2023-01-26T10:21:49.008Z,22.40
2023-01-26T10:24:22.980Z,21.13
2023-01-26T10:26:46.935Z,19.40
2023-01-26T10:29:16.821Z,21.73
2023-01-26T10:31:40.470Z,19.57
2023-01-26T10:34:13.228Z,19.13
2023-01-26T10:36:36.847Z,19.13
2023-01-26T10:39:07.911Z,19.80
2023-01-26T10:41:33.681Z,15.80
2023-01-26T10:44:01.244Z,16.73
2023-01-26T10:46:32.552Z,15.53
2023-01-26T10:48:57.816Z,17.03
2023-01-26T10:51:29.590Z,14.30
2023-01-26T10:54:15.316Z,16.33
2023-01-26T10:56:46.613Z,17.83
2023-01-26T10:59:10.763Z,17.67
2023-01-26T11:01:54.161Z,14.57
2023-01-26T11:04:17.888Z,15.70
2023-01-26T11:06:41.824Z,15.70
2023-01-26T11:09:19.355Z,14.53
2023-01-26T11:11:59.368Z,14.50
2023-01-26T11:14:23.431Z,15.60
2023-01-26T11:16:52.023Z,12.83
2023-01-26T11:19:24.054Z,12.77
2023-01-26T11:21:53.830Z,14.93
2023-01-26T11:24:27.372Z,13.13
2023-01-26T11:27:24.248Z,13.80
2023-01-26T11:30:33.304Z,13.07
2023-01-26T11:33:04.844Z,13.53
2023-01-26T11:35:40.837Z,15.07
2023-01-26T11:38:25.760Z,15.13
2023-01-26T11:40:55.919Z,15.47
2023-01-26T11:44:06.013Z,17.00
2023-01-26T11:46:55.518Z,17.93
2023-01-26T11:49:36.957Z,14.37
2023-01-26T11:52:12.610Z,18.33
2023-01-26T11:55:00.111Z,15.30
2023-01-26T11:57:32.231Z,15.60
2023-01-26T12:00:05.513Z,16.40
2023-01-26T12:02:38.918Z,14.53
2023-01-26T12:05:14.416Z,13.77
2023-01-26T12:07:54.681Z,14.67
2023-01-26T12:10:22.397Z,12.30
2023-01-26T12:12:52.446Z,13.10
2023-01-26T12:15:22.832Z,14.17
2023-01-26T12:17:59.819Z,13.70
2023-01-26T12:20:32.923Z,15.43
2023-01-26T12:23:05.055Z,15.13
2023-01-26T12:25:35.781Z,15.07
2023-01-26T12:28:15.828Z,15.17
2023-01-26T12:30:52.996Z,14.50
2023-01-26T12:33:16.917Z,15.23
2023-01-26T12:36:01.176Z,15.83
2023-01-26T12:38:42.004Z,14.90
2023-01-26T12:41:15.759Z,13.80
2023-01-26T12:43:54.107Z,13.97
2023-01-26T12:46:19.837Z,15.13
2023-01-26T12:48:46.857Z,15.63
2023-01-26T12:51:16.972Z,15.90
2023-01-26T12:53:53.441Z,15.83
2023-01-26T12:56:25.368Z,14.23
2023-01-26T12:58:51.638Z,15.57
2023-01-26T13:01:20.394Z,18.40
2023-01-26T13:03:47.193Z,19.77
2023-01-26T13:06:23.534Z,15.17
2023-01-26T13:09:04.541Z,16.23
2023-01-26T13:11:50.464Z,15.40
2023-01-26T13:14:36.670Z,16.80
2023-01-26T13:17:50.351Z,17.97
2023-01-26T13:20:50.385Z,17.83
2023-01-26T13:23:41.806Z,17.33
2023-01-26T13:26:44.998Z,16.97
2023-01-26T13:29:34.556Z,17.83
2023-01-26T13:32:02.154Z,19.23
2023-01-26T13:34:31.072Z,21.70
2023-01-26T13:36:59.224Z,22.93
2023-01-26T13:39:31.302Z,23.73
2023-01-26T13:41:55.029Z,23.10
2023-01-26T13:44:23.621Z,21.47
2023-01-26T13:46:53.473Z,21.53
2023-01-26T13:49:28.585Z,22.60
2023-01-26T13:51:52.238Z,21.97
2023-01-26T13:54:17.920Z,23.00
2023-01-26T13:56:43.437Z,24.60
2023-01-26T13:59:13.095Z,28.87
2023-01-26T14:01:43.965Z,27.10
2023-01-26T14:04:09.112Z,28.87
2023-01-26T14:06:35.376Z,30.23
2023-01-26T14:08:59.336Z,25.87
2023-01-26T14:11:27.916Z,31.37
2023-01-26T14:13:56.094Z,28.90
2023-01-26T14:16:26.557Z,26.63
2023-01-26T14:18:52.091Z,32.17
2023-01-26T14:21:21.755Z,33.53
2023-01-26T14:23:46.706Z,33.13
2023-01-26T14:26:21.420Z,32.63
2023-01-26T14:28:45.568Z,31.83
2023-01-26T14:31:16.822Z,34.13
2023-01-26T14:33:40.581Z,30.97
2023-01-26T14:36:06.773Z,31.53
2023-01-26T14:38:33.071Z,31.23
2023-01-26T14:41:00.822Z,33.10
2023-01-26T14:43:25.428Z,33.87
2023-01-26T14:45:54.984Z,35.93
2023-01-26T14:48:23.655Z,27.17
2023-01-26T14:50:49.443Z,31.13
2023-01-26T14:53:22.174Z,28.70
2023-01-26T14:55:46.163Z,31.73
2023-01-26T14:58:21.494Z,31.20
2023-01-26T15:00:50.164Z,30.50
2023-01-26T15:03:23.291Z,28.27
2023-01-26T15:05:46.866Z,28.97
2023-01-26T15:08:23.729Z,28.87
2023-01-26T15:11:16.453Z,26.70
2023-01-26T15:13:43.617Z,26.47
2023-01-26T15:16:16.495Z,30.93
2023-01-26T15:18:40.126Z,28.63
2023-01-26T15:21:15.378Z,30.53
2023-01-26T15:23:42.957Z,27.13
2023-01-26T15:26:10.416Z,24.40
2023-01-26T15:28:35.018Z,29.50
2023-01-26T15:31:00.841Z,30.40
2023-01-26T15:33:50.718Z,31.27
2023-01-26T15:36:33.867Z,26.63
2023-01-26T15:39:13.994Z,28.60
2023-01-26T15:41:37.575Z,24.47
2023-01-26T15:44:01.818Z,25.00
2023-01-26T15:46:27.312Z,25.80
2023-01-26T15:48:50.987Z,26.20
2023-01-26T15:51:15.256Z,28.20
2023-01-26T15:53:38.798Z,27.73
2023-01-26T15:56:02.397Z,27.30
2023-01-26T15:58:28.806Z,25.60
2023-01-26T16:00:53.447Z,27.83
2023-01-26T16:03:21.154Z,26.50
2023-01-26T16:05:47.826Z,26.17
2023-01-26T16:08:11.707Z,27.37
2023-01-26T16:10:35.547Z,30.33
2023-01-26T16:12:59.064Z,27.57
2023-01-26T16:15:32.814Z,31.50
2023-01-26T16:17:56.583Z,34.20
2023-01-26T16:20:22.070Z,31.70
2023-01-26T16:22:45.673Z,28.83
2023-01-26T16:25:24.833Z,27.63
2023-01-26T16:27:48.592Z,25.77
2023-01-26T16:30:12.992Z,22.93
2023-01-26T16:32:36.586Z,29.80
2023-01-26T16:35:00.205Z,31.60
2023-01-26T16:37:25.387Z,30.30
2023-01-26T16:39:48.976Z,29.40
2023-01-26T16:42:17.095Z,27.50
2023-01-26T16:44:40.699Z,34.57
2023-01-26T16:47:06.396Z,29.80
2023-01-26T16:49:30.017Z,28.40
2023-01-26T16:51:53.609Z,29.47
2023-01-26T16:54:18.490Z,29.77
2023-01-26T16:56:42.406Z,31.73
2023-01-26T16:59:06.186Z,30.07
2023-01-26T17:01:34.500Z,33.73
2023-01-26T17:03:58.425Z,30.90
2023-01-26T17:06:22.028Z,30.10
2023-01-26T17:08:46.135Z,31.37
2023-01-26T17:11:17.942Z,33.23
2023-01-26T17:13:41.536Z,30.50
2023-01-26T17:16:05.538Z,30.67
2023-01-26T17:18:29.368Z,30.80
2023-01-26T17:20:53.044Z,33.83
2023-01-26T17:23:16.695Z,36.87
2023-01-26T17:25:40.262Z,34.03
2023-01-26T17:28:06.012Z,35.20
2023-01-26T17:30:29.755Z,31.80
2023-01-26T17:32:53.450Z,36.60
2023-01-26T17:35:17.569Z,40.30
2023-01-26T17:37:41.628Z,35.50
2023-01-26T17:40:07.646Z,36.70
2023-01-26T17:42:33.457Z,36.67
2023-01-26T17:44:58.804Z,37.70
2023-01-26T17:47:22.871Z,48.23
2023-01-26T17:49:46.481Z,45.33
2023-01-26T17:52:12.399Z,39.07
2023-01-26T17:54:36.183Z,45.00
2023-01-26T17:57:00.880Z,38.40
2023-01-26T17:59:25.334Z,40.40
2023-01-26T18:01:50.311Z,39.63
2023-01-26T18:04:13.965Z,44.40
2023-01-26T18:06:38.802Z,53.20
2023-01-26T18:09:02.359Z,38.67
2023-01-26T18:11:26.120Z,42.07
2023-01-26T18:13:51.796Z,40.23
2023-01-26T18:16:17.992Z,41.17
2023-01-26T18:18:42.981Z,41.17
2023-01-26T18:21:15.363Z,36.90
2023-01-26T18:23:39.142Z,40.13
2023-01-26T18:26:05.076Z,45.97
2023-01-26T18:28:29.189Z,44.17
2023-01-26T18:30:52.963Z,43.40
2023-01-26T18:33:16.560Z,44.27
2023-01-26T18:35:41.656Z,44.20
2023-01-26T18:38:05.318Z,43.53
2023-01-26T18:40:28.955Z,47.23
2023-01-26T18:42:56.019Z,50.13
2023-01-26T18:45:19.540Z,49.83
2023-01-26T18:47:43.121Z,45.10
2023-01-26T18:50:08.554Z,49.10
2023-01-26T18:52:33.569Z,49.00
2023-01-26T18:54:57.077Z,41.67
2023-01-26T18:57:20.792Z,42.77
2023-01-26T18:59:44.367Z,47.60
2023-01-26T19:02:08.659Z,52.00
2023-01-26T19:04:32.524Z,42.90
2023-01-26T19:06:56.190Z,51.90
2023-01-26T19:09:21.373Z,47.10
2023-01-26T19:11:44.987Z,52.30
2023-01-26T19:14:09.906Z,55.13
2023-01-26T19:16:34.150Z,51.93
2023-01-26T19:18:57.923Z,50.67
2023-01-26T19:21:24.386Z,54.53
2023-01-26T19:23:48.127Z,53.30
2023-01-26T19:26:15.498Z,56.43
2023-01-26T19:28:41.524Z,45.03
2023-01-26T19:31:05.365Z,50.57
2023-01-26T19:33:29.163Z,55.60
2023-01-26T19:35:53.381Z,47.10
2023-01-26T19:38:17.380Z,45.43
2023-01-26T19:40:41.122Z,46.17
2023-01-26T19:43:07.011Z,50.83
2023-01-26T19:45:30.771Z,46.53
2023-01-26T19:47:54.312Z,47.73
2023-01-26T19:50:18.764Z,48.37
2023-01-26T19:52:42.489Z,52.50
2023-01-26T19:55:06.862Z,59.83
2023-01-26T19:57:33.055Z,48.40
2023-01-26T19:59:58.054Z,63.57
2023-01-26T20:02:21.619Z,53.23
2023-01-26T20:04:45.751Z,52.97
2023-01-26T20:07:09.320Z,57.93
2023-01-26T20:09:34.633Z,49.30
2023-01-26T20:11:58.132Z,54.37
2023-01-26T20:14:21.855Z,68.80
2023-01-26T20:16:46.815Z,57.40
2023-01-26T20:19:12.243Z,57.97
2023-01-26T20:21:36.996Z,52.83
2023-01-26T20:24:05.727Z,52.37
2023-01-26T20:26:29.979Z,49.77
2023-01-26T20:28:57.707Z,47.80
2023-01-26T20:31:24.560Z,50.13
2023-01-26T20:33:51.292Z,53.80
2023-01-26T20:36:17.918Z,51.33
2023-01-26T20:38:41.686Z,58.30
2023-01-26T20:41:08.937Z,49.13
2023-01-26T20:43:32.618Z,50.20
2023-01-26T20:45:56.223Z,54.50
2023-01-26T20:48:19.853Z,48.93
2023-01-26T20:50:45.036Z,53.20
2023-01-26T20:53:08.845Z,52.73
2023-01-26T20:55:33.088Z,57.27
2023-01-26T20:57:59.151Z,53.67
2023-01-26T21:00:24.006Z,45.90
2023-01-26T21:02:47.618Z,53.70
2023-01-26T21:05:11.486Z,55.33
2023-01-26T21:07:36.529Z,55.40
2023-01-26T21:10:00.058Z,57.17
2023-01-26T21:12:23.649Z,56.03
2023-01-26T21:14:47.259Z,52.37
2023-01-26T21:17:10.907Z,49.87
2023-01-26T21:19:34.530Z,50.27
2023-01-26T21:21:59.396Z,51.70
2023-01-26T21:24:24.695Z,61.03
2023-01-26T21:26:48.973Z,51.13
2023-01-26T21:29:16.636Z,53.20
2023-01-26T21:31:40.388Z,55.70
2023-01-26T21:34:03.967Z,61.70
2023-01-26T21:36:30.778Z,51.17
2023-01-26T21:38:59.016Z,63.00
2023-01-26T21:41:43.727Z,60.67
2023-01-26T21:44:11.178Z,55.23
2023-01-26T21:46:35.843Z,48.93
2023-01-26T21:48:59.936Z,55.43
2023-01-26T21:51:41.389Z,49.93
2023-01-26T21:54:08.257Z,54.10
2023-01-26T21:56:33.490Z,63.27
2023-01-26T21:59:02.522Z,51.50
2023-01-26T22:01:27.787Z,59.00
2023-01-26T22:03:51.645Z,57.37
2023-01-26T22:06:15.267Z,52.03
2023-01-26T22:08:39.857Z,55.17
2023-01-26T22:11:04.088Z,64.90
2023-01-26T22:13:29.312Z,43.50
2023-01-26T22:15:53.539Z,44.83
2023-01-26T22:18:18.096Z,46.43
2023-01-26T22:20:42.117Z,53.37
2023-01-26T22:23:06.081Z,52.50
2023-01-26T22:25:29.612Z,44.73
2023-01-26T22:27:53.962Z,45.70
2023-01-26T22:30:19.845Z,47.37
2023-01-26T22:32:44.745Z,49.17
2023-01-26T22:35:08.963Z,41.30
2023-01-26T22:37:33.013Z,48.17
2023-01-26T22:39:56.559Z,54.63
2023-01-26T22:42:20.264Z,45.53
2023-01-26T22:44:44.484Z,44.33
2023-01-26T22:47:09.785Z,45.07
2023-01-26T22:49:33.929Z,52.87
2023-01-26T22:51:57.634Z,48.33
2023-01-26T22:54:21.395Z,45.63
2023-01-26T22:56:45.808Z,61.23
2023-01-26T22:59:10.380Z,48.90
2023-01-26T23:01:34.832Z,56.00
2023-01-26T23:04:01.986Z,48.13
2023-01-26T23:06:26.124Z,49.60
2023-01-26T23:08:49.895Z,51.90
2023-01-26T23:11:17.284Z,46.37
2023-01-26T23:13:42.388Z,48.63
2023-01-26T23:16:07.661Z,56.60
2023-01-26T23:18:31.578Z,43.60
2023-01-26T23:20:58.460Z,58.57
2023-01-26T23:23:23.595Z,54.77
2023-01-26T23:25:52.828Z,63.63
2023-01-26T23:28:16.327Z,46.90
2023-01-26T23:30:39.947Z,41.00
2023-01-26T23:33:03.550Z,57.60
2023-01-26T23:35:27.220Z,48.17
2023-01-26T23:37:52.115Z,51.10
2023-01-26T23:40:16.096Z,52.07
2023-01-26T23:43:00.357Z,47.97
2023-01-26T23:45:23.229Z,41.07
2023-01-26T23:47:46.779Z,40.47
2023-01-26T23:50:12.621Z,46.53
2023-01-26T23:52:36.282Z,47.27
2023-01-26T23:55:01.280Z,43.20
2023-01-26T23:57:24.849Z,47.77
2023-01-26T23:59:48.438Z,44.37
